createdAt,value
2022-10-29T00:00:59.319Z,100433.63
2022-10-29T00:03:26.804Z,100433.38
2022-10-29T00:06:03.669Z,100440.69
2022-10-29T00:08:34.596Z,100444.00
2022-10-29T00:11:20.038Z,100441.28
2022-10-29T00:13:52.530Z,100442.94
2022-10-29T00:16:23.261Z,100444.56
2022-10-29T00:18:50.291Z,100448.78
2022-10-29T00:21:20.614Z,100440.91
2022-10-29T00:23:49.164Z,100446.81
2022-10-29T00:26:18.787Z,100448.09
2022-10-29T00:28:46.306Z,100449.63
2022-10-29T00:31:18.781Z,100447.94
2022-10-29T00:33:46.884Z,100439.72
2022-10-29T00:36:22.036Z,100447.47
2022-10-29T00:38:49.931Z,100446.88
2022-10-29T00:41:21.823Z,100447.53
2022-10-29T00:44:32.084Z,100454.50
2022-10-29T00:47:02.985Z,100445.19
2022-10-29T00:49:32.908Z,100453.53
2022-10-29T00:52:03.038Z,100454.78
2022-10-29T00:54:34.439Z,100452.31
2022-10-29T00:57:22.674Z,100454.22
2022-10-29T01:02:24.316Z,100441.75
2022-10-29T01:04:53.072Z,100440.09
2022-10-29T01:07:22.212Z,100443.88
2022-10-29T01:09:49.959Z,100450.31
2022-10-29T01:12:43.318Z,100454.78
2022-10-29T01:16:02.607Z,100455.47
2022-10-29T01:18:49.913Z,100450.59
2022-10-29T01:21:46.341Z,100453.84
2022-10-29T01:24:46.747Z,100448.28
2022-10-29T01:27:37.675Z,100448.16
2022-10-29T01:30:20.317Z,100447.56
2022-10-29T01:33:00.002Z,100442.97
2022-10-29T01:35:52.421Z,100443.78
2022-10-29T01:39:01.438Z,100435.69
2022-10-29T01:42:09.277Z,100440.88
2022-10-29T01:45:23.457Z,100441.47
2022-10-29T01:48:16.474Z,100433.72
2022-10-29T01:50:48.324Z,100423.53
2022-10-29T01:53:16.103Z,100427.88
2022-10-29T01:55:43.071Z,100424.09
2022-10-29T01:58:11.342Z,100420.00
2022-10-29T02:00:56.484Z,100420.19
2022-10-29T02:03:55.803Z,100428.78
2022-10-29T02:07:06.841Z,100423.81
2022-10-29T02:10:00.804Z,100409.94
2022-10-29T02:12:34.595Z,100410.19
2022-10-29T02:15:10.485Z,100411.69
2022-10-29T02:17:37.955Z,100419.19
2022-10-29T02:20:07.665Z,100418.81
2022-10-29T02:22:34.954Z,100422.00
2022-10-29T02:25:03.433Z,100413.25
2022-10-29T02:27:30.447Z,100412.91
2022-10-29T02:29:57.455Z,100417.72
2022-10-29T02:32:24.423Z,100414.63
2022-10-29T02:34:51.403Z,100407.19
2022-10-29T02:37:18.606Z,100407.63
2022-10-29T02:39:45.525Z,100410.19
2022-10-29T02:42:12.446Z,100413.59
2022-10-29T02:44:39.397Z,100428.56
2022-10-29T02:47:06.343Z,100423.00
2022-10-29T02:49:33.278Z,100426.38
2022-10-29T02:52:00.264Z,100424.16
2022-10-29T02:54:27.186Z,100415.88
2022-10-29T02:56:54.130Z,100421.75
2022-10-29T02:59:21.069Z,100411.38
2022-10-29T03:01:48.203Z,100412.44
2022-10-29T03:04:15.253Z,100408.91
2022-10-29T03:06:42.219Z,100415.34
2022-10-29T03:09:09.397Z,100410.19
2022-10-29T03:11:36.348Z,100409.38
2022-10-29T03:14:03.317Z,100407.50
2022-10-29T03:16:30.261Z,100396.69
2022-10-29T03:18:57.270Z,100393.16
2022-10-29T03:21:24.269Z,100390.25
2022-10-29T03:23:51.210Z,100385.91
2022-10-29T03:26:18.114Z,100390.47
2022-10-29T03:31:11.929Z,100379.88
2022-10-29T03:33:38.886Z,100388.59
2022-10-29T03:36:07.551Z,100377.78
2022-10-29T03:38:35.211Z,100374.88
2022-10-29T03:41:02.359Z,100368.63
2022-10-29T03:43:29.413Z,100374.03
2022-10-29T03:45:57.826Z,100376.75
2022-10-29T03:48:25.718Z,100368.88
2022-10-29T03:50:57.340Z,100360.38
2022-10-29T03:53:25.967Z,100370.59
2022-10-29T03:55:54.871Z,100376.22
2022-10-29T03:58:22.862Z,100387.44
2022-10-29T04:01:01.377Z,100389.56
2022-10-29T04:03:31.387Z,100390.59
2022-10-29T04:06:00.593Z,100390.81
2022-10-29T04:08:28.176Z,100383.75
2022-10-29T04:10:55.139Z,100385.88
2022-10-29T04:13:22.149Z,100398.53
2022-10-29T04:15:49.190Z,100391.72
2022-10-29T04:18:16.154Z,100389.44
2022-10-29T04:21:05.698Z,100392.63
2022-10-29T04:29:04.908Z,100388.00
2022-10-29T04:31:31.846Z,100385.94
2022-10-29T04:33:58.794Z,100392.03
2022-10-29T04:36:25.812Z,100387.25
2022-10-29T04:38:52.750Z,100390.38
2022-10-29T04:41:19.679Z,100388.13
2022-10-29T04:43:46.673Z,100398.31
2022-10-29T04:46:13.640Z,100399.97
2022-10-29T04:48:40.637Z,100407.00
2022-10-29T04:51:07.642Z,100398.47
2022-10-29T04:53:34.603Z,100398.25
2022-10-29T04:56:05.485Z,100391.59
2022-10-29T04:58:32.438Z,100401.97
2022-10-29T05:01:05.067Z,100405.28
2022-10-29T05:03:33.017Z,100407.53
2022-10-29T05:06:06.322Z,100401.91
2022-10-29T05:08:33.315Z,100393.63
2022-10-29T05:11:05.193Z,100391.50
2022-10-29T05:13:34.058Z,100391.28
2022-10-29T05:16:01.384Z,100386.50
2022-10-29T05:18:28.571Z,100383.81
2022-10-29T05:20:56.637Z,100383.81
2022-10-29T05:23:24.235Z,100383.59
2022-10-29T05:25:52.373Z,100387.34
2022-10-29T05:28:22.364Z,100381.94
2022-10-29T05:30:51.961Z,100387.94
2022-10-29T05:33:24.492Z,100383.59
2022-10-29T05:35:52.363Z,100385.47
2022-10-29T05:38:19.773Z,100377.13
2022-10-29T05:40:47.045Z,100373.63
2022-10-29T05:43:16.401Z,100371.75
2022-10-29T05:45:44.384Z,100372.78
2022-10-29T05:50:39.809Z,100378.41
2022-10-29T05:53:11.091Z,100380.25
2022-10-29T05:55:38.729Z,100375.91
2022-10-29T05:58:10.540Z,100375.31
2022-10-29T06:00:40.935Z,100368.28
2022-10-29T06:03:24.430Z,100369.53
2022-10-29T06:05:51.558Z,100372.47
2022-10-29T06:08:19.166Z,100375.38
2022-10-29T06:10:46.191Z,100362.94
2022-10-29T06:13:17.899Z,100372.91
2022-10-29T06:15:49.350Z,100378.31
2022-10-29T06:18:16.406Z,100380.38
2022-10-29T06:20:43.749Z,100386.19
2022-10-29T06:23:11.466Z,100389.34
2022-10-29T06:25:38.581Z,100391.66
2022-10-29T06:28:09.181Z,100393.75
2022-10-29T06:30:36.758Z,100392.53
2022-10-29T06:33:05.171Z,100396.50
2022-10-29T06:35:32.633Z,100397.13
2022-10-29T06:38:00.311Z,100392.78
2022-10-29T06:40:27.917Z,100393.03
2022-10-29T06:43:08.264Z,100388.06
2022-10-29T06:45:35.799Z,100394.25
2022-10-29T06:48:05.015Z,100392.63
2022-10-29T06:50:32.185Z,100392.63
2022-10-29T06:53:02.416Z,100401.31
2022-10-29T06:55:29.802Z,100399.47
2022-10-29T06:58:03.010Z,100394.91
2022-10-29T07:00:31.959Z,100393.63
2022-10-29T07:03:00.161Z,100390.69
2022-10-29T07:05:27.705Z,100390.47
2022-10-29T07:07:57.145Z,100381.97
2022-10-29T07:10:26.661Z,100379.63
2022-10-29T07:12:53.867Z,100376.28
2022-10-29T07:15:24.263Z,100382.91
2022-10-29T07:18:08.615Z,100386.81
2022-10-29T07:20:39.444Z,100385.94
2022-10-29T07:23:06.588Z,100399.38
2022-10-29T07:25:35.165Z,100399.53
2022-10-29T07:28:16.928Z,100399.72
2022-10-29T07:30:45.303Z,100396.97
2022-10-29T07:33:12.784Z,100410.16
2022-10-29T07:35:40.095Z,100402.81
2022-10-29T07:38:10.761Z,100406.28
2022-10-29T07:40:40.469Z,100399.75
2022-10-29T07:43:09.020Z,100409.44
2022-10-29T07:45:36.119Z,100404.78
2022-10-29T07:48:07.774Z,100407.63
2022-10-29T07:50:34.997Z,100408.63
2022-10-29T07:53:04.133Z,100412.53
2022-10-29T07:55:31.507Z,100409.59
2022-10-29T07:58:05.815Z,100404.78
2022-10-29T08:00:36.516Z,100414.31
2022-10-29T08:03:04.448Z,100413.50
2022-10-29T08:05:32.365Z,100413.03
2022-10-29T08:08:00.039Z,100413.47
2022-10-29T08:10:28.192Z,100417.56
2022-10-29T08:12:59.059Z,100415.47
2022-10-29T08:15:28.742Z,100412.53
2022-10-29T08:17:56.447Z,100411.50
2022-10-29T08:20:26.219Z,100416.03
2022-10-29T08:22:53.515Z,100415.03
2022-10-29T08:25:21.265Z,100411.84
2022-10-29T08:28:03.875Z,100410.78
2022-10-29T08:30:31.923Z,100404.94
2022-10-29T08:33:00.548Z,100413.66
2022-10-29T08:35:29.013Z,100411.78
2022-10-29T08:37:56.383Z,100411.53
2022-10-29T08:40:55.490Z,100413.41
2022-10-29T08:43:47.698Z,100411.53
2022-10-29T08:47:03.763Z,100416.25
2022-10-29T08:49:50.433Z,100418.06
2022-10-29T08:52:25.258Z,100425.50
2022-10-29T08:55:18.443Z,100414.59
2022-10-29T08:57:58.279Z,100407.78
2022-10-29T09:00:37.470Z,100414.75
2022-10-29T09:03:12.589Z,100410.06
2022-10-29T09:05:49.513Z,100414.56
2022-10-29T09:08:54.715Z,100412.00
2022-10-29T09:12:24.978Z,100416.72
2022-10-29T09:15:39.403Z,100408.50
2022-10-29T09:18:46.864Z,100404.66
2022-10-29T09:21:46.306Z,100407.84
2022-10-29T09:24:39.338Z,100407.47
2022-10-29T09:27:23.701Z,100395.03
2022-10-29T09:30:14.462Z,100403.16
2022-10-29T09:32:56.338Z,100403.03
2022-10-29T09:35:44.599Z,100400.53
2022-10-29T09:38:44.667Z,100403.50
2022-10-29T09:41:12.743Z,100396.63
2022-10-29T09:43:45.753Z,100394.63
2022-10-29T09:46:21.216Z,100389.06
2022-10-29T09:49:22.394Z,100391.31
2022-10-29T09:52:15.410Z,100388.72
2022-10-29T09:54:43.075Z,100387.75
2022-10-29T09:57:21.592Z,100385.16
2022-10-29T09:59:56.889Z,100392.91
2022-10-29T10:02:37.939Z,100386.16
2022-10-29T10:05:13.679Z,100394.16
2022-10-29T10:07:41.690Z,100388.84
2022-10-29T10:10:22.749Z,100387.56
2022-10-29T10:12:50.784Z,100390.84
2022-10-29T10:15:34.971Z,100392.00
2022-10-29T10:18:05.028Z,100380.41
2022-10-29T10:20:41.299Z,100376.41
2022-10-29T10:23:27.669Z,100366.22
2022-10-29T10:26:01.969Z,100366.53
2022-10-29T10:28:34.641Z,100369.09
2022-10-29T10:31:04.627Z,100370.03
2022-10-29T10:33:34.805Z,100364.22
2022-10-29T10:36:08.624Z,100360.50
2022-10-29T10:38:49.175Z,100361.78
2022-10-29T10:41:25.671Z,100347.19
2022-10-29T10:43:54.988Z,100339.38
2022-10-29T10:46:42.484Z,100340.75
2022-10-29T10:49:18.164Z,100335.69
2022-10-29T10:51:54.215Z,100334.59
2022-10-29T10:54:58.365Z,100328.19
2022-10-29T10:57:32.156Z,100322.56
2022-10-29T11:00:06.681Z,100318.84
2022-10-29T11:02:44.217Z,100312.44
2022-10-29T11:05:23.026Z,100313.63
2022-10-29T11:08:11.974Z,100301.75
2022-10-29T11:11:03.965Z,100307.00
2022-10-29T11:13:34.111Z,100304.94
2022-10-29T11:16:55.658Z,100306.34
2022-10-29T11:19:39.451Z,100299.84
2022-10-29T11:22:32.007Z,100296.34
2022-10-29T11:25:36.824Z,100294.41
2022-10-29T11:28:34.763Z,100291.09
2022-10-29T11:31:22.717Z,100287.97
2022-10-29T11:34:22.031Z,100287.16
2022-10-29T11:37:12.946Z,100281.19
2022-10-29T11:39:54.405Z,100282.13
2022-10-29T11:42:21.468Z,100276.22
2022-10-29T11:44:48.537Z,100268.47
2022-10-29T11:47:48.726Z,100265.81
2022-10-29T11:50:48.807Z,100263.66
2022-10-29T11:53:29.515Z,100257.19
2022-10-29T11:56:40.486Z,100254.16
2022-10-29T11:59:55.667Z,100245.19
2022-10-29T12:03:04.498Z,100248.16
2022-10-29T12:06:08.717Z,100239.69
2022-10-29T12:08:55.182Z,100241.28
2022-10-29T12:12:20.023Z,100238.50
2022-10-29T12:15:08.892Z,100243.88
2022-10-29T12:18:04.311Z,100250.97
2022-10-29T12:20:58.727Z,100248.22
2022-10-29T12:24:02.651Z,100238.41
2022-10-29T12:26:44.379Z,100233.81
2022-10-29T12:29:47.812Z,100235.38
2022-10-29T12:32:43.299Z,100225.31
2022-10-29T12:35:38.965Z,100233.47
2022-10-29T12:38:37.598Z,100238.09
2022-10-29T12:41:36.876Z,100239.47
2022-10-29T12:44:46.725Z,100237.91
2022-10-29T12:47:45.743Z,100226.50
2022-10-29T12:50:42.397Z,100218.41
2022-10-29T12:53:28.636Z,100215.75
2022-10-29T12:55:57.801Z,100207.59
2022-10-29T12:58:57.180Z,100204.34
2022-10-29T13:01:50.001Z,100201.63
2022-10-29T13:04:33.933Z,100194.81
2022-10-29T13:07:18.420Z,100196.19
2022-10-29T13:09:48.332Z,100187.22
2022-10-29T13:13:00.055Z,100193.44
2022-10-29T13:15:36.014Z,100188.03
2022-10-29T13:18:31.491Z,100191.03
2022-10-29T13:20:58.918Z,100186.41
2022-10-29T13:23:35.047Z,100183.69
2022-10-29T13:26:06.095Z,100193.25
2022-10-29T13:28:35.952Z,100183.75
2022-10-29T13:31:08.836Z,100185.09
2022-10-29T13:33:35.682Z,100182.66
2022-10-29T13:36:26.320Z,100186.47
2022-10-29T13:39:04.342Z,100188.34
2022-10-29T13:41:42.953Z,100184.81
2022-10-29T13:44:24.974Z,100178.31
2022-10-29T13:47:20.322Z,100180.47
2022-10-29T13:49:49.637Z,100174.22
2022-10-29T13:52:20.140Z,100179.66
2022-10-29T13:54:51.924Z,100177.16
2022-10-29T13:57:35.323Z,100165.75
2022-10-29T14:00:11.496Z,100162.19
2022-10-29T14:02:56.377Z,100158.66
2022-10-29T14:06:09.826Z,100166.56
2022-10-29T14:09:11.972Z,100158.13
2022-10-29T14:11:45.037Z,100151.66
2022-10-29T14:14:31.032Z,100152.69
2022-10-29T14:17:16.791Z,100151.66
2022-10-29T14:19:50.005Z,100151.66
2022-10-29T14:22:38.054Z,100156.00
2022-10-29T14:25:24.940Z,100144.03
2022-10-29T14:28:17.292Z,100141.00
2022-10-29T14:30:58.309Z,100148.88
2022-10-29T14:33:29.647Z,100149.97
2022-10-29T14:36:35.175Z,100150.19
2022-10-29T14:39:55.270Z,100148.28
2022-10-29T14:42:37.682Z,100146.63
2022-10-29T14:45:24.601Z,100144.16
2022-10-29T14:48:16.092Z,100146.06
2022-10-29T14:50:50.500Z,100145.50
2022-10-29T14:53:35.105Z,100138.44
2022-10-29T14:56:11.090Z,100137.28
2022-10-29T14:58:38.764Z,100134.03
2022-10-29T15:01:15.856Z,100134.03
2022-10-29T15:03:43.118Z,100135.91
2022-10-29T15:06:26.138Z,100141.34
2022-10-29T15:09:01.260Z,100137.81
2022-10-29T15:11:39.036Z,100136.16
2022-10-29T15:14:31.117Z,100133.44
2022-10-29T15:17:00.006Z,100133.19
2022-10-29T15:19:27.596Z,100134.84
2022-10-29T15:21:54.545Z,100132.13
2022-10-29T15:24:24.410Z,100125.28
2022-10-29T15:26:58.690Z,100124.78
2022-10-29T15:29:33.624Z,100123.72
2022-10-29T15:32:02.721Z,100124.78
2022-10-29T15:34:34.896Z,100122.06
2022-10-29T15:37:19.746Z,100122.06
2022-10-29T15:39:56.591Z,100122.06
2022-10-29T15:42:35.726Z,100121.53
2022-10-29T15:45:14.827Z,100118.28
2022-10-29T15:48:09.143Z,100111.47
2022-10-29T15:50:43.202Z,100115.22
2022-10-29T15:53:17.545Z,100118.81
2022-10-29T15:55:44.986Z,100112.75
2022-10-29T15:58:16.012Z,100121.97
2022-10-29T16:00:43.649Z,100119.03
2022-10-29T16:03:26.216Z,100112.75
2022-10-29T16:06:06.224Z,100114.91
2022-10-29T16:08:47.461Z,100116.81
2022-10-29T16:11:19.996Z,100120.91
2022-10-29T16:13:53.453Z,100126.34
2022-10-29T16:16:25.141Z,100121.97
2022-10-29T16:18:53.300Z,100121.44
2022-10-29T16:21:25.950Z,100118.72
2022-10-29T16:23:53.440Z,100119.78
2022-10-29T16:26:23.675Z,100122.50
2022-10-29T16:28:54.460Z,100115.44
2022-10-29T16:31:27.583Z,100117.34
2022-10-29T16:33:58.596Z,100121.97
2022-10-29T16:36:25.995Z,100119.25
2022-10-29T16:38:53.020Z,100120.06
2022-10-29T16:41:20.705Z,100117.34
2022-10-29T16:43:48.537Z,100122.50
2022-10-29T16:46:15.926Z,100123.06
2022-10-29T16:48:43.371Z,100119.53
2022-10-29T16:51:10.463Z,100120.09
2022-10-29T16:53:37.749Z,100119.03
2022-10-29T16:56:05.699Z,100128.31
2022-10-29T16:58:32.759Z,100125.34
2022-10-29T17:01:08.363Z,100122.13
2022-10-29T17:03:35.908Z,100124.56
2022-10-29T17:06:06.428Z,100120.50
2022-10-29T17:08:34.467Z,100121.59
2022-10-29T17:11:04.183Z,100123.81
2022-10-29T17:13:31.425Z,100133.59
2022-10-29T17:15:58.390Z,100127.91
2022-10-29T17:18:25.360Z,100129.81
2022-10-29T17:21:00.470Z,100132.78
2022-10-29T17:23:28.521Z,100135.75
2022-10-29T17:25:57.359Z,100131.66
2022-10-29T17:28:26.158Z,100131.34
2022-10-29T17:30:53.213Z,100126.44
2022-10-29T17:33:20.215Z,100139.91
2022-10-29T17:35:47.285Z,100126.31
2022-10-29T17:38:14.293Z,100129.53
2022-10-29T17:40:44.668Z,100134.91
2022-10-29T17:43:11.773Z,100132.16
2022-10-29T17:45:38.981Z,100132.91
2022-10-29T17:48:07.310Z,100141.00
2022-10-29T17:50:34.473Z,100134.69
2022-10-29T17:53:01.807Z,100130.03
2022-10-29T17:55:28.953Z,100127.81
2022-10-29T17:57:56.429Z,100131.59
2022-10-29T18:00:23.809Z,100130.84
2022-10-29T18:02:51.318Z,100136.34
2022-10-29T18:05:19.225Z,100134.47
2022-10-29T18:07:46.258Z,100137.00
2022-10-29T18:10:13.208Z,100132.72
2022-10-29T18:12:40.162Z,100136.56
2022-10-29T18:15:07.975Z,100134.97
2022-10-29T18:17:36.487Z,100135.00
2022-10-29T18:20:04.664Z,100133.44
2022-10-29T18:22:31.604Z,100132.94
2022-10-29T18:24:58.790Z,100134.91
2022-10-29T18:27:26.049Z,100133.53
2022-10-29T18:29:53.156Z,100128.66
2022-10-29T18:32:20.112Z,100126.53
2022-10-29T18:34:47.116Z,100136.88
2022-10-29T18:37:14.239Z,100136.38
2022-10-29T18:39:41.270Z,100128.78
2022-10-29T18:42:08.325Z,100126.59
2022-10-29T18:44:35.507Z,100124.47
2022-10-29T18:47:02.558Z,100124.19
2022-10-29T18:49:29.713Z,100128.56
2022-10-29T18:51:56.674Z,100123.94
2022-10-29T18:54:23.885Z,100126.09
2022-10-29T18:56:50.892Z,100126.09
2022-10-29T18:59:17.828Z,100123.38
2022-10-29T19:01:44.958Z,100126.09
2022-10-29T19:04:15.769Z,100129.06
2022-10-29T19:06:43.463Z,100120.63
2022-10-29T19:09:11.370Z,100118.41
2022-10-29T19:11:38.849Z,100121.09
2022-10-29T19:14:09.742Z,100121.31
2022-10-29T19:16:36.767Z,100117.78
2022-10-29T19:19:11.934Z,100117.50
2022-10-29T19:21:40.200Z,100121.31
2022-10-29T19:24:08.408Z,100127.00
2022-10-29T19:26:36.578Z,100121.00
2022-10-29T19:29:05.656Z,100129.66
2022-10-29T19:31:35.064Z,100126.94
2022-10-29T19:34:06.264Z,100125.28
2022-10-29T19:36:35.479Z,100130.13
2022-10-29T19:39:03.235Z,100124.97
2022-10-29T19:41:30.625Z,100122.50
2022-10-29T19:44:01.639Z,100127.38
2022-10-29T19:46:29.637Z,100132.25
2022-10-29T19:49:00.636Z,100133.59
2022-10-29T19:51:28.144Z,100138.69
2022-10-29T19:53:57.826Z,100135.09
2022-10-29T19:56:24.886Z,100143.44
2022-10-29T19:58:51.951Z,100137.41
2022-10-29T20:01:19.302Z,100131.34
2022-10-29T20:03:47.187Z,100135.34
2022-10-29T20:06:15.609Z,100138.25
2022-10-29T20:08:43.052Z,100137.63
2022-10-29T20:11:10.087Z,100143.22
2022-10-29T20:13:37.839Z,100140.16
2022-10-29T20:16:11.184Z,100145.16
2022-10-29T20:18:38.342Z,100140.97
2022-10-29T20:23:38.024Z,100145.09
2022-10-29T20:26:06.469Z,100137.97
2022-10-29T20:28:34.351Z,100147.09
2022-10-29T20:31:37.209Z,100146.97
2022-10-29T20:34:10.007Z,100140.63
2022-10-29T20:36:37.346Z,100139.72
2022-10-29T20:39:04.541Z,100143.19
2022-10-29T20:41:31.597Z,100143.38
2022-10-29T20:44:01.222Z,100151.41
2022-10-29T20:46:28.830Z,100155.34
2022-10-29T20:48:55.796Z,100153.34
2022-10-29T20:51:23.920Z,100158.09
2022-10-29T20:53:52.273Z,100158.00
2022-10-29T20:56:21.686Z,100161.66
2022-10-29T20:58:48.701Z,100158.88
2022-10-29T21:01:18.481Z,100160.69
2022-10-29T21:03:47.843Z,100161.66
2022-10-29T21:06:17.923Z,100160.47
2022-10-29T21:08:49.620Z,100169.31
2022-10-29T21:11:18.691Z,100168.19
2022-10-29T21:13:46.189Z,100167.00
2022-10-29T21:16:16.761Z,100163.97
2022-10-29T21:18:45.317Z,100161.41
2022-10-29T21:21:12.755Z,100154.34
2022-10-29T21:23:40.040Z,100154.81
2022-10-29T21:26:10.623Z,100150.47
2022-10-29T21:28:37.604Z,100151.28
2022-10-29T21:31:04.801Z,100154.13
2022-10-29T21:33:31.829Z,100144.44
2022-10-29T21:35:59.408Z,100144.88
2022-10-29T21:38:28.200Z,100140.13
2022-10-29T21:40:56.312Z,100138.34
2022-10-29T21:43:23.329Z,100139.84
2022-10-29T21:45:51.403Z,100142.16
2022-10-29T21:48:18.777Z,100137.38
2022-10-29T21:50:46.190Z,100136.97
2022-10-29T21:53:13.520Z,100139.56
2022-10-29T21:55:40.507Z,100127.75
2022-10-29T21:58:07.834Z,100136.78
2022-10-29T22:00:34.891Z,100134.97
2022-10-29T22:03:04.451Z,100133.66
2022-10-29T22:05:31.797Z,100133.19
2022-10-29T22:07:59.189Z,100125.59
2022-10-29T22:10:26.605Z,100126.78
2022-10-29T22:12:53.582Z,100132.75
2022-10-29T22:15:20.539Z,100133.31
2022-10-29T22:17:47.618Z,100129.53
2022-10-29T22:20:14.692Z,100127.41
2022-10-29T22:22:41.699Z,100129.06
2022-10-29T22:25:09.127Z,100129.88
2022-10-29T22:27:36.374Z,100127.97
2022-10-29T22:30:04.478Z,100133.41
2022-10-29T22:32:31.509Z,100133.41
2022-10-29T22:34:58.561Z,100135.28
2022-10-29T22:37:27.086Z,100134.47
2022-10-29T22:39:54.037Z,100141.19
2022-10-29T22:42:20.986Z,100140.88
2022-10-29T22:44:47.957Z,100135.94
2022-10-29T22:47:14.899Z,100137.28
2022-10-29T22:49:41.872Z,100139.41
2022-10-29T22:59:48.179Z,100145.00
2022-10-29T23:02:14.584Z,100136.06
2022-10-29T23:04:40.952Z,100140.88
2022-10-29T23:07:07.245Z,100140.31
2022-10-29T23:09:33.530Z,100145.16
2022-10-29T23:11:59.812Z,100142.94
2022-10-29T23:14:26.897Z,100131.53
2022-10-29T23:16:53.433Z,100138.50
